createdAt,value
2023-05-25T00:00:06.206Z,102240.84
2023-05-25T00:02:09.485Z,102241.81
2023-05-25T00:04:17.151Z,102238.41
2023-05-25T00:06:21.102Z,102245.50
2023-05-25T00:08:25.524Z,102244.69
2023-05-25T00:10:28.824Z,102243.00
2023-05-25T00:12:32.268Z,102249.13
2023-05-25T00:14:35.994Z,102251.81
2023-05-25T00:16:40.826Z,102248.41
2023-05-25T00:18:44.567Z,102251.13
2023-05-25T00:20:49.297Z,102254.72
2023-05-25T00:22:56.259Z,102246.91
2023-05-25T00:24:59.606Z,102242.66
2023-05-25T00:27:03.225Z,102238.31
2023-05-25T00:29:07.282Z,102242.75
2023-05-25T00:31:10.654Z,102240.16
2023-05-25T00:33:14.194Z,102238.38
2023-05-25T00:35:17.605Z,102237.53
2023-05-25T00:37:23.549Z,102238.38
2023-05-25T00:39:26.844Z,102241.91
2023-05-25T00:41:31.987Z,102240.19
2023-05-25T00:43:35.359Z,102242.88
2023-05-25T00:45:39.028Z,102235.03
2023-05-25T00:47:42.676Z,102247.25
2023-05-25T00:49:46.293Z,102240.31
2023-05-25T00:51:50.157Z,102246.41
2023-05-25T00:53:54.896Z,102236.88
2023-05-25T00:56:06.332Z,102241.31
2023-05-25T00:58:09.786Z,102243.00
2023-05-25T01:00:15.442Z,102239.59
2023-05-25T01:02:21.105Z,102236.19
2023-05-25T01:04:25.537Z,102252.84
2023-05-25T01:06:33.555Z,102238.09
2023-05-25T01:08:38.541Z,102241.63
2023-05-25T01:10:44.238Z,102245.25
2023-05-25T01:12:48.636Z,102241.84
2023-05-25T01:14:53.417Z,102244.53
2023-05-25T01:16:59.019Z,102241.97
2023-05-25T01:19:02.498Z,102238.53
2023-05-25T01:21:14.201Z,102244.69
2023-05-25T01:23:20.639Z,102245.59
2023-05-25T01:25:31.580Z,102248.25
2023-05-25T01:27:41.241Z,102250.97
2023-05-25T01:29:46.738Z,102259.72
2023-05-25T01:31:51.089Z,102252.78
2023-05-25T01:33:55.143Z,102249.34
2023-05-25T01:35:59.561Z,102243.31
2023-05-25T01:38:04.539Z,102252.97
2023-05-25T01:40:10.279Z,102249.56
2023-05-25T01:42:13.771Z,102252.22
2023-05-25T01:44:17.157Z,102254.91
2023-05-25T01:46:29.650Z,102250.56
2023-05-25T01:48:44.211Z,102251.47
2023-05-25T01:50:55.838Z,102247.22
2023-05-25T01:53:05.856Z,102249.88
2023-05-25T01:55:13.040Z,102246.47
2023-05-25T01:57:18.773Z,102244.91
2023-05-25T01:59:24.364Z,102240.63
2023-05-25T02:01:29.573Z,102238.06
2023-05-25T02:03:32.994Z,102238.13
2023-05-25T02:05:36.667Z,102236.47
2023-05-25T02:07:41.759Z,102238.25
2023-05-25T02:09:46.564Z,102240.94
2023-05-25T02:11:50.538Z,102243.59
2023-05-25T02:13:53.868Z,102245.41
2023-05-25T02:15:57.633Z,102243.69
2023-05-25T02:18:01.402Z,102235.06
2023-05-25T02:20:08.619Z,102236.00
2023-05-25T02:22:12.054Z,102238.66
2023-05-25T02:24:15.337Z,102236.97
2023-05-25T02:26:20.038Z,102243.09
2023-05-25T02:28:23.372Z,102239.59
2023-05-25T02:30:26.788Z,102244.00
2023-05-25T02:32:33.769Z,102247.50
2023-05-25T02:34:38.671Z,102252.78
2023-05-25T02:36:43.671Z,102243.25
2023-05-25T02:38:49.843Z,102245.91
2023-05-25T02:40:54.398Z,102249.41
2023-05-25T02:42:59.149Z,102246.00
2023-05-25T02:45:02.545Z,102246.00
2023-05-25T02:47:07.721Z,102251.31
2023-05-25T02:49:11.319Z,102249.63
2023-05-25T02:51:14.753Z,102254.03
2023-05-25T02:53:18.142Z,102259.25
2023-05-25T02:55:21.516Z,102258.47
2023-05-25T02:57:24.932Z,102258.47
2023-05-25T02:59:29.676Z,102261.97
2023-05-25T03:01:35.186Z,102262.88
2023-05-25T03:03:38.704Z,102265.47
2023-05-25T03:05:42.136Z,102265.44
2023-05-25T03:07:45.879Z,102268.03
2023-05-25T03:09:49.582Z,102267.09
2023-05-25T03:11:52.966Z,102266.19
2023-05-25T03:13:57.621Z,102275.75
2023-05-25T03:16:02.426Z,102269.56
2023-05-25T03:18:05.969Z,102275.63
2023-05-25T03:20:15.701Z,102274.75
2023-05-25T03:22:22.580Z,102275.63
2023-05-25T03:24:26.832Z,102278.25
2023-05-25T03:26:32.328Z,102283.47
2023-05-25T03:28:37.214Z,102283.56
2023-05-25T03:30:41.097Z,102287.91
2023-05-25T03:32:47.174Z,102286.19
2023-05-25T03:34:50.490Z,102290.56
2023-05-25T03:36:55.169Z,102282.72
2023-05-25T03:38:58.849Z,102287.09
2023-05-25T03:41:02.220Z,102288.00
2023-05-25T03:43:05.600Z,102288.00
2023-05-25T03:45:10.158Z,102287.09
2023-05-25T03:47:14.020Z,102291.41
2023-05-25T03:49:18.791Z,102294.81
2023-05-25T03:51:22.197Z,102295.59
2023-05-25T03:53:25.593Z,102302.41
2023-05-25T03:55:29.544Z,102303.97
2023-05-25T03:57:32.892Z,102297.75
2023-05-25T03:59:36.192Z,102301.06
2023-05-25T04:01:40.171Z,102309.63
2023-05-25T04:03:43.600Z,102308.56
2023-05-25T04:05:48.344Z,102321.44
2023-05-25T04:07:52.240Z,102319.53
2023-05-25T04:09:55.592Z,102324.63
2023-05-25T04:11:58.942Z,102312.31
2023-05-25T04:14:02.291Z,102318.28
2023-05-25T04:16:10.280Z,102321.66
2023-05-25T04:18:14.014Z,102315.41
2023-05-25T04:20:17.954Z,102310.91
2023-05-25T04:22:22.826Z,102321.19
2023-05-25T04:24:26.463Z,102318.38
2023-05-25T04:26:30.561Z,102323.41
2023-05-25T04:28:34.162Z,102325.00
2023-05-25T04:31:00.166Z,102322.94
2023-05-25T04:33:29.851Z,102332.22
2023-05-25T04:35:50.611Z,102331.91
2023-05-25T04:37:56.960Z,102328.19
2023-05-25T04:40:01.692Z,102334.09
2023-05-25T04:42:06.431Z,102330.47
2023-05-25T04:44:10.873Z,102336.50
2023-05-25T04:46:22.325Z,102328.66
2023-05-25T04:48:25.737Z,102334.75
2023-05-25T04:50:29.167Z,102331.22
2023-05-25T04:52:32.627Z,102337.19
2023-05-25T04:54:37.556Z,102338.91
2023-05-25T04:56:41.074Z,102338.78
2023-05-25T04:58:44.976Z,102338.63
2023-05-25T05:00:49.705Z,102339.44
2023-05-25T05:02:56.665Z,102336.72
2023-05-25T05:05:00.212Z,102340.13
2023-05-25T05:07:04.045Z,102343.53
2023-05-25T05:09:07.930Z,102346.03
2023-05-25T05:11:12.649Z,102338.06
2023-05-25T05:13:16.202Z,102344.06
2023-05-25T05:15:20.073Z,102347.41
2023-05-25T05:17:26.425Z,102344.66
2023-05-25T05:19:30.030Z,102349.75
2023-05-25T05:21:33.506Z,102350.56
2023-05-25T05:23:38.729Z,102354.84
2023-05-25T05:25:42.232Z,102360.00
2023-05-25T05:27:47.540Z,102360.75
2023-05-25T05:29:59.896Z,102364.09
2023-05-25T05:32:03.479Z,102364.78
2023-05-25T05:34:08.760Z,102355.91
2023-05-25T05:36:12.155Z,102357.44
2023-05-25T05:38:16.423Z,102356.44
2023-05-25T05:40:19.761Z,102357.13
2023-05-25T05:42:23.515Z,102358.72
2023-05-25T05:44:29.500Z,102363.72
2023-05-25T05:46:34.006Z,102360.88
2023-05-25T05:48:37.733Z,102366.72
2023-05-25T05:50:42.419Z,102365.63
2023-05-25T05:52:48.189Z,102367.94
2023-05-25T05:54:51.509Z,102365.97
2023-05-25T05:56:55.154Z,102373.72
2023-05-25T05:58:58.691Z,102372.59
2023-05-25T06:01:04.394Z,102376.75
2023-05-25T06:03:08.132Z,102374.72
2023-05-25T06:05:11.629Z,102367.47
2023-05-25T06:07:17.353Z,102373.47
2023-05-25T06:09:20.737Z,102368.09
2023-05-25T06:11:24.114Z,102367.03
2023-05-25T06:13:27.534Z,102371.09
2023-05-25T06:15:30.861Z,102370.13
2023-05-25T06:17:37.609Z,102360.19
2023-05-25T06:19:41.533Z,102371.22
2023-05-25T06:21:44.873Z,102372.53
2023-05-25T06:23:48.868Z,102373.16
2023-05-25T06:25:54.002Z,102373.78
2023-05-25T06:27:58.735Z,102369.31
2023-05-25T06:30:02.814Z,102374.56
2023-05-25T06:32:10.894Z,102371.81
2023-05-25T06:34:16.141Z,102374.16
2023-05-25T06:36:20.000Z,102379.16
2023-05-25T06:38:24.007Z,102385.81
2023-05-25T06:40:27.387Z,102392.38
2023-05-25T06:42:30.701Z,102374.50
2023-05-25T06:44:34.040Z,102382.84
2023-05-25T06:46:39.327Z,102380.78
2023-05-25T06:48:42.730Z,102384.00
2023-05-25T06:50:47.556Z,102389.81
2023-05-25T06:52:51.260Z,102391.13
2023-05-25T06:54:54.729Z,102392.47
2023-05-25T06:56:58.122Z,102386.94
2023-05-25T06:59:01.554Z,102392.72
2023-05-25T07:01:05.581Z,102383.75
2023-05-25T07:03:09.096Z,102381.75
2023-05-25T07:05:12.500Z,102386.72
2023-05-25T07:07:17.381Z,102399.09
2023-05-25T07:09:21.533Z,102390.56
2023-05-25T07:11:25.149Z,102398.75
2023-05-25T07:13:28.475Z,102392.72
2023-05-25T07:15:31.858Z,102389.34
2023-05-25T07:17:36.646Z,102385.94
2023-05-25T07:19:40.321Z,102388.47
2023-05-25T07:21:43.660Z,102392.72
2023-05-25T07:23:48.383Z,102384.75
2023-05-25T07:25:51.670Z,102392.28
2023-05-25T07:27:55.374Z,102393.53
2023-05-25T07:29:58.699Z,102394.75
2023-05-25T07:32:01.987Z,102394.16
2023-05-25T07:34:05.409Z,102399.69
2023-05-25T07:36:09.929Z,102391.41
2023-05-25T07:38:13.230Z,102390.19
2023-05-25T07:40:17.984Z,102401.13
2023-05-25T07:42:21.855Z,102395.19
2023-05-25T07:44:25.240Z,102399.66
2023-05-25T07:46:28.611Z,102395.28
2023-05-25T07:48:31.991Z,102403.09
2023-05-25T07:50:35.333Z,102407.72
2023-05-25T07:52:39.441Z,102403.78
2023-05-25T07:54:42.758Z,102403.38
2023-05-25T07:56:47.567Z,102407.72
2023-05-25T07:58:50.925Z,102412.47
2023-05-25T08:00:54.303Z,102414.00
2023-05-25T08:02:57.943Z,102410.69
2023-05-25T08:05:05.556Z,102406.88
2023-05-25T08:07:08.901Z,102412.53
2023-05-25T08:09:13.347Z,102416.22
2023-05-25T08:11:17.147Z,102417.13
2023-05-25T08:13:21.824Z,102412.16
2023-05-25T08:15:26.538Z,102417.56
2023-05-25T08:17:29.918Z,102429.19
2023-05-25T08:19:33.639Z,102420.75
2023-05-25T08:21:37.778Z,102427.88
2023-05-25T08:23:42.520Z,102423.47
2023-05-25T08:25:46.323Z,102428.97
2023-05-25T08:27:49.804Z,102429.81
2023-05-25T08:29:54.535Z,102428.00
2023-05-25T08:31:57.921Z,102429.63
2023-05-25T08:34:01.722Z,102428.59
2023-05-25T08:36:05.511Z,102419.72
2023-05-25T08:38:08.840Z,102421.25
2023-05-25T08:40:16.860Z,102422.56
2023-05-25T08:42:20.288Z,102420.31
2023-05-25T08:44:23.847Z,102418.06
2023-05-25T08:46:32.257Z,102428.28
2023-05-25T08:48:41.945Z,102424.47
2023-05-25T08:50:46.897Z,102438.47
2023-05-25T08:52:53.024Z,102433.34
2023-05-25T08:55:01.262Z,102425.97
2023-05-25T08:57:11.618Z,102434.47
2023-05-25T08:59:27.793Z,102427.84
2023-05-25T09:01:38.736Z,102437.47
2023-05-25T09:03:44.044Z,102434.28
2023-05-25T09:05:48.526Z,102428.06
2023-05-25T09:07:54.785Z,102441.31
2023-05-25T09:09:58.946Z,102443.47
2023-05-25T09:12:03.023Z,102443.56
2023-05-25T09:14:07.175Z,102440.94
2023-05-25T09:16:11.271Z,102441.69
2023-05-25T09:18:16.218Z,102440.50
2023-05-25T09:20:20.791Z,102448.81
2023-05-25T09:22:24.479Z,102456.94
2023-05-25T09:24:28.077Z,102458.25
2023-05-25T09:26:31.686Z,102452.50
2023-05-25T09:28:34.984Z,102459.88
2023-05-25T09:30:38.385Z,102462.63
2023-05-25T09:32:42.049Z,102462.16
2023-05-25T09:34:47.253Z,102459.56
2023-05-25T09:36:50.853Z,102457.28
2023-05-25T09:38:54.895Z,102449.91
2023-05-25T09:40:58.553Z,102453.31
2023-05-25T09:43:03.921Z,102452.22
2023-05-25T09:45:08.202Z,102449.19
2023-05-25T09:47:13.921Z,102448.78
2023-05-25T09:49:17.922Z,102454.00
2023-05-25T09:51:22.878Z,102452.09
2023-05-25T09:53:27.548Z,102461.53
2023-05-25T09:55:48.158Z,102452.06
2023-05-25T09:57:55.904Z,102452.97
2023-05-25T09:59:59.278Z,102449.69
2023-05-25T10:02:02.916Z,102455.81
2023-05-25T10:04:06.390Z,102470.16
2023-05-25T10:06:10.036Z,102461.66
2023-05-25T10:08:15.409Z,102458.06
2023-05-25T10:10:18.922Z,102456.06
2023-05-25T10:12:25.322Z,102453.19
2023-05-25T10:14:30.247Z,102454.78
2023-05-25T10:16:35.323Z,102459.75
2023-05-25T10:18:45.086Z,102451.63
2023-05-25T10:20:50.596Z,102446.97
2023-05-25T10:22:58.789Z,102448.25
2023-05-25T10:25:10.057Z,102459.91
2023-05-25T10:27:26.969Z,102457.59
2023-05-25T10:29:32.616Z,102457.38
2023-05-25T10:31:37.828Z,102466.09
2023-05-25T10:33:41.532Z,102466.72
2023-05-25T10:36:01.686Z,102461.63
2023-05-25T10:38:07.538Z,102469.91
2023-05-25T10:40:13.975Z,102464.59
2023-05-25T10:42:26.984Z,102458.22
2023-05-25T10:44:31.077Z,102471.81
2023-05-25T10:46:34.609Z,102473.53
2023-05-25T10:48:39.475Z,102475.81
2023-05-25T10:50:43.011Z,102462.44
2023-05-25T10:52:46.357Z,102471.13
2023-05-25T10:54:50.251Z,102470.19
2023-05-25T10:57:14.749Z,102468.00
2023-05-25T10:59:27.403Z,102470.75
2023-05-25T11:01:34.343Z,102467.59
2023-05-25T11:03:51.817Z,102462.47
2023-05-25T11:05:55.239Z,102461.44
2023-05-25T11:07:59.658Z,102454.84
2023-05-25T11:10:03.479Z,102458.25
2023-05-25T11:12:07.176Z,102461.38
2023-05-25T11:14:22.756Z,102465.88
2023-05-25T11:16:36.382Z,102459.97
2023-05-25T11:18:40.251Z,102457.19
2023-05-25T11:20:44.530Z,102454.19
2023-05-25T11:22:49.381Z,102458.22
2023-05-25T11:24:55.042Z,102455.69
2023-05-25T11:27:01.004Z,102449.81
2023-05-25T11:29:15.839Z,102451.03
2023-05-25T11:31:23.576Z,102449.59
2023-05-25T11:33:26.982Z,102448.41
2023-05-25T11:35:33.748Z,102452.28
2023-05-25T11:37:37.596Z,102449.41
2023-05-25T11:39:41.247Z,102449.88
2023-05-25T11:41:49.634Z,102445.47
2023-05-25T11:43:53.471Z,102450.03
2023-05-25T11:45:58.590Z,102447.56
2023-05-25T11:48:01.950Z,102445.25
2023-05-25T11:50:05.906Z,102453.34
2023-05-25T11:52:09.569Z,102439.84
2023-05-25T11:54:22.808Z,102441.78
2023-05-25T11:56:35.079Z,102443.66
2023-05-25T11:58:39.308Z,102436.19
2023-05-25T12:00:42.848Z,102445.47
2023-05-25T12:02:47.840Z,102441.50
2023-05-25T12:04:55.486Z,102441.16
2023-05-25T12:07:05.556Z,102436.00
2023-05-25T12:09:13.410Z,102444.09
2023-05-25T12:11:16.860Z,102441.22
2023-05-25T12:13:21.831Z,102439.16
2023-05-25T12:15:26.448Z,102441.13
2023-05-25T12:17:30.289Z,102435.44
2023-05-25T12:19:35.146Z,102444.03
2023-05-25T12:21:39.663Z,102423.72
2023-05-25T12:23:43.216Z,102427.22
2023-05-25T12:25:51.047Z,102438.34
2023-05-25T12:28:12.589Z,102435.94
2023-05-25T12:30:16.290Z,102440.06
2023-05-25T12:32:20.033Z,102434.50
2023-05-25T12:34:29.387Z,102430.63
2023-05-25T12:36:44.618Z,102430.25
2023-05-25T12:38:59.789Z,102431.94
2023-05-25T12:41:07.245Z,102430.75
2023-05-25T12:43:11.917Z,102425.91
2023-05-25T12:45:15.340Z,102423.13
2023-05-25T12:47:20.937Z,102430.88
2023-05-25T12:49:28.969Z,102425.06
2023-05-25T12:51:39.495Z,102431.06
2023-05-25T12:53:51.061Z,102424.53
2023-05-25T12:56:02.172Z,102431.19
2023-05-25T12:58:06.952Z,102422.47
2023-05-25T13:00:11.759Z,102417.34
2023-05-25T13:02:16.087Z,102407.44
2023-05-25T13:04:19.422Z,102413.63
2023-05-25T13:06:22.857Z,102414.75
2023-05-25T13:08:26.178Z,102415.97
2023-05-25T13:10:32.821Z,102426.44
2023-05-25T13:12:36.539Z,102420.50
2023-05-25T13:14:39.889Z,102415.94
2023-05-25T13:16:43.221Z,102410.41
2023-05-25T13:18:46.636Z,102409.06
2023-05-25T13:20:51.904Z,102400.47
2023-05-25T13:22:57.693Z,102407.38
2023-05-25T13:25:02.203Z,102412.31
2023-05-25T13:27:07.163Z,102398.69
2023-05-25T13:29:10.705Z,102403.19
2023-05-25T13:31:14.265Z,102406.84
2023-05-25T13:33:17.603Z,102397.69
2023-05-25T13:35:34.202Z,102401.78
2023-05-25T13:37:37.632Z,102403.19
2023-05-25T13:39:40.940Z,102396.44
2023-05-25T13:41:44.203Z,102388.84
2023-05-25T13:43:49.139Z,102389.13
2023-05-25T13:45:52.512Z,102395.31
2023-05-25T13:47:55.966Z,102386.88
2023-05-25T13:49:59.416Z,102391.50
2023-05-25T13:52:02.666Z,102390.50
2023-05-25T13:54:06.328Z,102388.47
2023-05-25T13:56:09.793Z,102388.44
2023-05-25T13:58:13.109Z,102387.25
2023-05-25T14:00:18.579Z,102390.84
2023-05-25T14:02:21.947Z,102379.06
2023-05-25T14:04:26.423Z,102378.22
2023-05-25T14:06:30.828Z,102384.97
2023-05-25T14:08:34.146Z,102386.38
2023-05-25T14:10:39.019Z,102383.75
2023-05-25T14:12:43.288Z,102384.25
2023-05-25T14:14:46.604Z,102388.06
2023-05-25T14:16:51.263Z,102377.50
2023-05-25T14:18:55.592Z,102386.94
2023-05-25T14:20:58.913Z,102387.72
2023-05-25T14:23:02.210Z,102386.56
2023-05-25T14:25:06.188Z,102384.25
2023-05-25T14:27:09.713Z,102376.28
2023-05-25T14:29:13.071Z,102389.22
2023-05-25T14:31:16.615Z,102392.38
2023-05-25T14:33:21.426Z,102390.16
2023-05-25T14:35:24.910Z,102390.78
2023-05-25T14:37:28.357Z,102379.97
2023-05-25T14:39:31.675Z,102382.03
2023-05-25T14:41:34.925Z,102378.34
2023-05-25T14:43:38.223Z,102376.38
2023-05-25T14:45:41.623Z,102379.41
2023-05-25T14:47:45.521Z,102377.50
2023-05-25T14:49:50.295Z,102373.97
2023-05-25T14:51:53.749Z,102377.34
2023-05-25T14:53:57.825Z,102368.59
2023-05-25T14:56:01.765Z,102387.91
2023-05-25T14:58:05.168Z,102371.38
2023-05-25T15:00:10.005Z,102378.41
2023-05-25T15:02:13.409Z,102385.22
2023-05-25T15:04:16.977Z,102373.97
2023-05-25T15:06:21.845Z,102387.44
2023-05-25T15:08:25.130Z,102398.19
2023-05-25T15:10:29.762Z,102384.09
2023-05-25T15:12:33.075Z,102394.19
2023-05-25T15:14:39.907Z,102398.56
2023-05-25T15:16:43.612Z,102392.06
2023-05-25T15:18:47.004Z,102391.59
2023-05-25T15:20:50.355Z,102382.22
2023-05-25T15:22:55.085Z,102388.41
2023-05-25T15:24:59.392Z,102385.22
2023-05-25T15:27:05.145Z,102386.31
2023-05-25T15:29:08.491Z,102389.44
2023-05-25T15:31:11.898Z,102386.22
2023-05-25T15:33:15.770Z,102377.66
2023-05-25T15:35:19.278Z,102386.63
2023-05-25T15:37:22.580Z,102382.88
2023-05-25T15:39:27.310Z,102377.09
2023-05-25T15:41:30.638Z,102380.06
2023-05-25T15:43:33.922Z,102383.75
2023-05-25T15:45:37.389Z,102370.03
2023-05-25T15:47:40.701Z,102379.22
2023-05-25T15:49:44.085Z,102381.38
2023-05-25T15:51:47.398Z,102370.34
2023-05-25T15:53:50.694Z,102370.06
2023-05-25T15:55:55.368Z,102380.19
2023-05-25T15:57:58.663Z,102371.19
2023-05-25T16:00:01.991Z,102376.09
2023-05-25T16:02:05.767Z,102379.06
2023-05-25T16:04:09.287Z,102380.47
2023-05-25T16:06:12.714Z,102380.50
2023-05-25T16:08:16.132Z,102376.53
2023-05-25T16:10:19.647Z,102373.59
2023-05-25T16:12:26.135Z,102375.50
2023-05-25T16:14:29.443Z,102381.06
2023-05-25T16:16:32.961Z,102379.69
2023-05-25T16:18:36.414Z,102388.28
2023-05-25T16:20:39.905Z,102376.00
2023-05-25T16:22:43.262Z,102383.38
2023-05-25T16:24:46.590Z,102373.72
2023-05-25T16:26:49.941Z,102371.03
2023-05-25T16:28:54.715Z,102380.16
2023-05-25T16:30:58.058Z,102376.91
2023-05-25T16:33:01.410Z,102371.94
2023-05-25T16:35:05.165Z,102370.31
2023-05-25T16:37:08.493Z,102368.69
2023-05-25T16:39:11.920Z,102375.75
2023-05-25T16:41:15.566Z,102375.25
2023-05-25T16:43:18.823Z,102376.44
2023-05-25T16:45:23.636Z,102372.09
2023-05-25T16:47:27.034Z,102367.75
2023-05-25T16:49:30.338Z,102363.13
2023-05-25T16:51:33.657Z,102374.22
2023-05-25T16:53:36.992Z,102366.88
2023-05-25T16:55:40.316Z,102368.41
2023-05-25T16:57:43.669Z,102370.78
2023-05-25T16:59:47.042Z,102370.91
2023-05-25T17:01:52.044Z,102369.22
2023-05-25T17:03:55.610Z,102359.53
2023-05-25T17:05:59.001Z,102368.19
2023-05-25T17:08:02.815Z,102372.25
2023-05-25T17:10:07.566Z,102365.34
2023-05-25T17:12:11.007Z,102372.25
2023-05-25T17:14:14.250Z,102370.84
2023-05-25T17:16:17.774Z,102367.97
2023-05-25T17:18:22.850Z,102374.13
2023-05-25T17:20:26.196Z,102363.50
2023-05-25T17:22:29.624Z,102372.53
2023-05-25T17:24:32.953Z,102370.31
2023-05-25T17:26:36.340Z,102364.50
2023-05-25T17:28:39.664Z,102371.97
2023-05-25T17:30:42.960Z,102368.81
2023-05-25T17:32:47.040Z,102370.72
2023-05-25T17:34:51.842Z,102370.94
2023-05-25T17:36:55.153Z,102366.81
2023-05-25T17:38:58.525Z,102363.66
2023-05-25T17:41:01.846Z,102369.31
2023-05-25T17:43:05.220Z,102368.69
2023-05-25T17:45:11.665Z,102370.72
2023-05-25T17:47:15.076Z,102375.28
2023-05-25T17:49:18.412Z,102371.03
2023-05-25T17:51:23.649Z,102377.41
2023-05-25T17:53:27.193Z,102381.84
2023-05-25T17:55:30.648Z,102382.91
2023-05-25T17:57:33.988Z,102380.59
2023-05-25T17:59:37.661Z,102384.19
2023-05-25T18:01:41.903Z,102387.09
2023-05-25T18:03:45.760Z,102379.31
2023-05-25T18:05:49.345Z,102389.31
2023-05-25T18:07:54.298Z,102393.75
2023-05-25T18:09:57.644Z,102391.84
2023-05-25T18:12:01.125Z,102392.91
2023-05-25T18:14:05.116Z,102381.44
2023-05-25T18:16:08.621Z,102388.59
2023-05-25T18:18:12.040Z,102397.91
2023-05-25T18:20:15.541Z,102396.44
2023-05-25T18:22:19.081Z,102400.00
2023-05-25T18:24:23.852Z,102396.72
2023-05-25T18:26:27.804Z,102396.84
2023-05-25T18:28:31.481Z,102403.97
2023-05-25T18:30:34.958Z,102394.41
2023-05-25T18:32:38.401Z,102398.88
2023-05-25T18:34:42.467Z,102405.00
2023-05-25T18:36:46.124Z,102400.53
2023-05-25T18:38:49.660Z,102410.25
2023-05-25T18:40:54.460Z,102404.06
2023-05-25T18:42:57.826Z,102411.09
2023-05-25T18:45:01.499Z,102409.34
2023-05-25T18:47:05.042Z,102413.63
2023-05-25T18:49:08.410Z,102416.75
2023-05-25T18:51:12.322Z,102411.97
2023-05-25T18:53:15.725Z,102416.06
2023-05-25T18:55:19.401Z,102426.34
2023-05-25T18:57:24.173Z,102422.69
2023-05-25T18:59:27.931Z,102423.53
2023-05-25T19:01:31.354Z,102427.09
2023-05-25T19:03:34.943Z,102424.44
2023-05-25T19:05:38.908Z,102429.72
2023-05-25T19:07:54.896Z,102431.41
2023-05-25T19:10:02.153Z,102435.69
2023-05-25T19:12:07.265Z,102439.81
2023-05-25T19:14:11.932Z,102442.22
2023-05-25T19:16:15.616Z,102435.75
2023-05-25T19:18:19.227Z,102443.47
2023-05-25T19:20:22.674Z,102445.81
2023-05-25T19:22:26.097Z,102447.28
2023-05-25T19:24:29.356Z,102450.41
2023-05-25T19:26:32.620Z,102447.50
2023-05-25T19:28:35.943Z,102452.38
2023-05-25T19:30:40.675Z,102460.75
2023-05-25T19:32:44.021Z,102464.81
2023-05-25T19:34:47.404Z,102457.50
2023-05-25T19:36:59.753Z,102453.56
2023-05-25T19:39:05.018Z,102455.75
2023-05-25T19:41:08.429Z,102456.16
2023-05-25T19:43:11.830Z,102458.34
2023-05-25T19:45:15.184Z,102456.09
2023-05-25T19:47:19.976Z,102466.19
2023-05-25T19:49:23.318Z,102468.31
2023-05-25T19:51:26.792Z,102461.63
2023-05-25T19:53:31.567Z,102469.91
2023-05-25T19:55:36.808Z,102468.53
2023-05-25T19:57:40.153Z,102469.69
2023-05-25T19:59:44.589Z,102473.53
2023-05-25T20:01:48.062Z,102481.66
2023-05-25T20:03:52.889Z,102476.66
2023-05-25T20:05:56.417Z,102482.13
2023-05-25T20:07:59.756Z,102479.78
2023-05-25T20:10:03.151Z,102482.63
2023-05-25T20:12:07.676Z,102484.69
2023-05-25T20:14:10.969Z,102484.16
2023-05-25T20:16:14.548Z,102487.97
2023-05-25T20:18:18.266Z,102490.81
2023-05-25T20:20:22.994Z,102494.50
2023-05-25T20:22:26.538Z,102495.50
2023-05-25T20:24:29.797Z,102496.66
2023-05-25T20:26:34.118Z,102495.94
2023-05-25T20:28:37.571Z,102496.09
2023-05-25T20:30:41.365Z,102491.88
2023-05-25T20:32:44.878Z,102494.66
2023-05-25T20:34:48.243Z,102487.69
2023-05-25T20:36:53.109Z,102501.88
2023-05-25T20:38:56.434Z,102505.56
2023-05-25T20:40:59.720Z,102502.31
2023-05-25T20:43:03.142Z,102493.66
2023-05-25T20:45:07.396Z,102505.09
2023-05-25T20:47:10.813Z,102504.38
2023-05-25T20:49:14.079Z,102497.47
2023-05-25T20:51:17.405Z,102502.00
2023-05-25T20:53:22.319Z,102502.09
2023-05-25T20:55:25.666Z,102504.78
2023-05-25T20:57:29.757Z,102516.28
2023-05-25T20:59:33.070Z,102516.38
2023-05-25T21:01:36.413Z,102513.88
2023-05-25T21:03:40.441Z,102512.25
2023-05-25T21:05:44.989Z,102519.41
2023-05-25T21:07:48.584Z,102521.38
2023-05-25T21:09:53.534Z,102522.41
2023-05-25T21:11:56.844Z,102519.06
2023-05-25T21:14:00.376Z,102519.19
2023-05-25T21:16:03.786Z,102517.56
2023-05-25T21:18:08.621Z,102515.13
2023-05-25T21:20:12.500Z,102520.56
2023-05-25T21:22:16.194Z,102520.69
2023-05-25T21:24:19.501Z,102511.31
2023-05-25T21:26:24.203Z,102512.41
2023-05-25T21:28:27.597Z,102519.66
2023-05-25T21:30:30.961Z,102516.34
2023-05-25T21:32:34.274Z,102509.50
2023-05-25T21:34:37.609Z,102518.44
2023-05-25T21:36:40.993Z,102516.84
2023-05-25T21:38:44.438Z,102517.09
2023-05-25T21:40:47.876Z,102520.75
2023-05-25T21:42:54.384Z,102518.25
2023-05-25T21:44:57.756Z,102518.31
2023-05-25T21:47:01.150Z,102513.25
2023-05-25T21:49:04.614Z,102521.25
2023-05-25T21:51:07.964Z,102523.06
2023-05-25T21:53:11.283Z,102527.56
2023-05-25T21:55:14.636Z,102526.88
2023-05-25T21:57:18.017Z,102530.53
2023-05-25T21:59:22.738Z,102530.69
2023-05-25T22:01:26.063Z,102529.94
2023-05-25T22:03:29.361Z,102531.84
2023-05-25T22:05:34.497Z,102533.72
2023-05-25T22:07:37.857Z,102534.75
2023-05-25T22:09:41.129Z,102533.16
2023-05-25T22:11:44.468Z,102540.34
2023-05-25T22:13:47.776Z,102540.47
2023-05-25T22:15:52.604Z,102540.69
2023-05-25T22:17:56.273Z,102549.56
2023-05-25T22:22:09.643Z,102547.22
2023-05-25T22:24:12.946Z,102556.94
2023-05-25T22:26:16.352Z,102547.53
2023-05-25T22:28:19.636Z,102550.31
2023-05-25T22:30:23.053Z,102558.34
2023-05-25T22:32:27.817Z,102550.63
2023-05-25T22:34:31.192Z,102556.91
2023-05-25T22:36:34.472Z,102551.84
2023-05-25T22:38:37.748Z,102558.03
2023-05-25T22:40:41.082Z,102547.66
2023-05-25T22:42:49.892Z,102560.84
2023-05-25T22:44:53.219Z,102560.97
2023-05-25T22:46:56.663Z,102557.59
2023-05-25T22:49:01.426Z,102551.63
2023-05-25T22:51:04.765Z,102550.94
2023-05-25T22:53:08.072Z,102552.84
2023-05-25T22:55:11.773Z,102552.03
2023-05-25T22:57:15.051Z,102557.38
2023-05-25T22:59:19.022Z,102553.03
2023-05-25T23:01:22.395Z,102555.75
2023-05-25T23:03:25.837Z,102553.19
2023-05-25T23:05:30.772Z,102559.38
2023-05-25T23:07:34.127Z,102569.13
2023-05-25T23:09:37.508Z,102568.38
2023-05-25T23:11:41.146Z,102567.59
2023-05-25T23:13:45.341Z,102566.75
2023-05-25T23:15:49.086Z,102566.84
2023-05-25T23:17:52.549Z,102571.28
2023-05-25T23:19:56.029Z,102576.59
2023-05-25T23:22:00.889Z,102572.38
2023-05-25T23:24:04.319Z,102567.22
2023-05-25T23:26:07.928Z,102572.59
2023-05-25T23:28:11.449Z,102563.06
2023-05-25T23:30:14.914Z,102572.78
2023-05-25T23:32:18.408Z,102571.16
2023-05-25T23:34:21.928Z,102574.75
2023-05-25T23:36:26.313Z,102576.56
2023-05-25T23:38:31.291Z,102578.38
2023-05-25T23:40:34.717Z,102579.38
2023-05-25T23:42:41.520Z,102577.69
2023-05-25T23:44:44.954Z,102579.56